sensor_id;sensor_type;location;lat;lon;timestamp;temperature;humidity
51837;DHT22;38941;53.254;6.600;2023-02-23T00:00:49;7.30;99.90
51837;DHT22;38941;53.254;6.600;2023-02-23T00:02:51;7.30;99.90
51837;DHT22;38941;53.254;6.600;2023-02-23T00:04:52;7.30;99.90
51837;DHT22;38941;53.254;6.600;2023-02-23T00:07:12;7.30;99.90
51837;DHT22;38941;53.254;6.600;2023-02-23T00:09:31;7.30;99.90
51837;DHT22;38941;53.254;6.600;2023-02-23T00:11:35;7.30;99.90
51837;DHT22;38941;53.254;6.600;2023-02-23T00:13:36;7.30;99.90
51837;DHT22;38941;53.254;6.600;2023-02-23T00:15:37;7.30;99.90
51837;DHT22;38941;53.254;6.600;2023-02-23T00:17:38;7.30;99.90
51837;DHT22;38941;53.254;6.600;2023-02-23T00:19:40;7.30;99.90
51837;DHT22;38941;53.254;6.600;2023-02-23T00:21:42;7.30;99.90
51837;DHT22;38941;53.254;6.600;2023-02-23T00:23:48;7.30;99.90
51837;DHT22;38941;53.254;6.600;2023-02-23T00:25:49;7.30;99.90
51837;DHT22;38941;53.254;6.600;2023-02-23T00:27:50;7.30;99.90
51837;DHT22;38941;53.254;6.600;2023-02-23T00:29:52;7.40;99.90
51837;DHT22;38941;53.254;6.600;2023-02-23T00:31:53;7.40;99.90
51837;DHT22;38941;53.254;6.600;2023-02-23T00:33:58;7.40;99.90
51837;DHT22;38941;53.254;6.600;2023-02-23T00:36:06;7.30;99.90
51837;DHT22;38941;53.254;6.600;2023-02-23T00:38:08;7.30;99.90
51837;DHT22;38941;53.254;6.600;2023-02-23T00:40:09;7.40;99.90
51837;DHT22;38941;53.254;6.600;2023-02-23T00:42:16;7.40;99.90
51837;DHT22;38941;53.254;6.600;2023-02-23T00:44:21;7.40;99.90
51837;DHT22;38941;53.254;6.600;2023-02-23T00:46:24;7.40;99.90
51837;DHT22;38941;53.254;6.600;2023-02-23T00:48:26;7.40;99.90
51837;DHT22;38941;53.254;6.600;2023-02-23T00:50:28;7.40;99.90
51837;DHT22;38941;53.254;6.600;2023-02-23T00:52:30;7.40;99.90
51837;DHT22;38941;53.254;6.600;2023-02-23T00:54:30;7.40;99.90
51837;DHT22;38941;53.254;6.600;2023-02-23T00:56:31;7.40;99.90
51837;DHT22;38941;53.254;6.600;2023-02-23T00:58:32;7.40;99.90
51837;DHT22;38941;53.254;6.600;2023-02-23T01:00:34;7.40;99.90
51837;DHT22;38941;53.254;6.600;2023-02-23T01:02:41;7.50;99.90
51837;DHT22;38941;53.254;6.600;2023-02-23T01:04:42;7.50;99.90
51837;DHT22;38941;53.254;6.600;2023-02-23T01:06:43;7.40;99.90
51837;DHT22;38941;53.254;6.600;2023-02-23T01:08:47;7.40;99.90
51837;DHT22;38941;53.254;6.600;2023-02-23T01:10:50;7.50;99.90
51837;DHT22;38941;53.254;6.600;2023-02-23T01:12:52;7.50;99.90
51837;DHT22;38941;53.254;6.600;2023-02-23T01:14:54;7.50;99.90
51837;DHT22;38941;53.254;6.600;2023-02-23T01:16:54;7.40;99.90
51837;DHT22;38941;53.254;6.600;2023-02-23T01:18:58;7.40;99.90
51837;DHT22;38941;53.254;6.600;2023-02-23T01:21:00;7.40;99.90
51837;DHT22;38941;53.254;6.600;2023-02-23T01:23:01;7.40;99.90
51837;DHT22;38941;53.254;6.600;2023-02-23T01:25:03;7.40;99.90
51837;DHT22;38941;53.254;6.600;2023-02-23T01:27:03;7.40;99.90
51837;DHT22;38941;53.254;6.600;2023-02-23T01:29:10;7.40;99.90
51837;DHT22;38941;53.254;6.600;2023-02-23T01:31:11;7.40;99.90
51837;DHT22;38941;53.254;6.600;2023-02-23T01:33:11;7.50;99.90
51837;DHT22;38941;53.254;6.600;2023-02-23T01:35:14;7.50;99.90
51837;DHT22;38941;53.254;6.600;2023-02-23T01:37:14;7.50;99.90
51837;DHT22;38941;53.254;6.600;2023-02-23T01:39:19;7.40;99.90
51837;DHT22;38941;53.254;6.600;2023-02-23T01:41:22;7.40;99.90
51837;DHT22;38941;53.254;6.600;2023-02-23T01:43:23;7.40;99.90
51837;DHT22;38941;53.254;6.600;2023-02-23T01:45:32;7.40;99.90
51837;DHT22;38941;53.254;6.600;2023-02-23T01:47:38;7.50;99.90
51837;DHT22;38941;53.254;6.600;2023-02-23T01:49:39;7.40;99.90
51837;DHT22;38941;53.254;6.600;2023-02-23T01:51:43;7.50;99.90
51837;DHT22;38941;53.254;6.600;2023-02-23T01:53:56;7.50;99.90
51837;DHT22;38941;53.254;6.600;2023-02-23T01:56:04;7.40;99.90
51837;DHT22;38941;53.254;6.600;2023-02-23T01:58:15;7.40;99.90
51837;DHT22;38941;53.254;6.600;2023-02-23T02:00:19;7.40;99.90
51837;DHT22;38941;53.254;6.600;2023-02-23T02:02:22;7.40;99.90
51837;DHT22;38941;53.254;6.600;2023-02-23T02:04:23;7.40;99.90
51837;DHT22;38941;53.254;6.600;2023-02-23T02:06:26;7.40;99.90
51837;DHT22;38941;53.254;6.600;2023-02-23T02:08:32;7.40;99.90
51837;DHT22;38941;53.254;6.600;2023-02-23T02:10:35;7.40;99.90
51837;DHT22;38941;53.254;6.600;2023-02-23T02:12:44;7.50;99.90
51837;DHT22;38941;53.254;6.600;2023-02-23T02:14:45;7.40;99.90
51837;DHT22;38941;53.254;6.600;2023-02-23T02:24:29;7.40;99.90
51837;DHT22;38941;53.254;6.600;2023-02-23T02:29:25;7.40;99.90
51837;DHT22;38941;53.254;6.600;2023-02-23T02:40:53;7.40;99.90
51837;DHT22;38941;53.254;6.600;2023-02-23T02:43:11;7.40;99.90
51837;DHT22;38941;53.254;6.600;2023-02-23T02:47:45;7.40;99.90
51837;DHT22;38941;53.254;6.600;2023-02-23T02:50:04;7.40;99.90
51837;DHT22;38941;53.254;6.600;2023-02-23T02:52:21;7.40;99.90
51837;DHT22;38941;53.254;6.600;2023-02-23T02:54:24;7.40;99.90
51837;DHT22;38941;53.254;6.600;2023-02-23T02:56:28;7.40;99.90
51837;DHT22;38941;53.254;6.600;2023-02-23T02:58:29;7.50;99.90
51837;DHT22;38941;53.254;6.600;2023-02-23T03:00:38;7.50;99.90
51837;DHT22;38941;53.254;6.600;2023-02-23T03:02:58;7.40;99.90
51837;DHT22;38941;53.254;6.600;2023-02-23T03:05:21;7.40;99.90
51837;DHT22;38941;53.254;6.600;2023-02-23T03:07:58;7.50;99.90
51837;DHT22;38941;53.254;6.600;2023-02-23T03:20:46;7.40;99.90
51837;DHT22;38941;53.254;6.600;2023-02-23T03:23:22;7.40;99.90
51837;DHT22;38941;53.254;6.600;2023-02-23T03:28:31;7.40;99.90
51837;DHT22;38941;53.254;6.600;2023-02-23T03:36:11;7.40;99.90
51837;DHT22;38941;53.254;6.600;2023-02-23T03:38:36;7.40;99.90
51837;DHT22;38941;53.254;6.600;2023-02-23T03:40:58;7.40;99.90
51837;DHT22;38941;53.254;6.600;2023-02-23T03:43:22;7.40;99.90
51837;DHT22;38941;53.254;6.600;2023-02-23T03:45:45;7.40;99.90
51837;DHT22;38941;53.254;6.600;2023-02-23T03:48:09;7.40;99.90
51837;DHT22;38941;53.254;6.600;2023-02-23T03:50:37;7.40;99.90
51837;DHT22;38941;53.254;6.600;2023-02-23T03:52:59;7.30;99.90
51837;DHT22;38941;53.254;6.600;2023-02-23T03:55:24;7.40;99.90
51837;DHT22;38941;53.254;6.600;2023-02-23T03:57:49;7.40;99.90
51837;DHT22;38941;53.254;6.600;2023-02-23T04:00:16;7.40;99.90
51837;DHT22;38941;53.254;6.600;2023-02-23T04:02:37;7.40;99.90
51837;DHT22;38941;53.254;6.600;2023-02-23T04:05:00;7.40;99.90
51837;DHT22;38941;53.254;6.600;2023-02-23T04:07:20;7.40;99.90
51837;DHT22;38941;53.254;6.600;2023-02-23T04:09:40;7.30;99.90
51837;DHT22;38941;53.254;6.600;2023-02-23T04:12:29;7.40;99.90
51837;DHT22;38941;53.254;6.600;2023-02-23T04:14:53;7.30;99.90
51837;DHT22;38941;53.254;6.600;2023-02-23T04:16:56;7.30;99.90
51837;DHT22;38941;53.254;6.600;2023-02-23T04:18:57;7.30;99.90
51837;DHT22;38941;53.254;6.600;2023-02-23T04:20:59;7.30;99.90
51837;DHT22;38941;53.254;6.600;2023-02-23T04:23:00;7.30;99.90
51837;DHT22;38941;53.254;6.600;2023-02-23T04:25:01;7.30;99.90
51837;DHT22;38941;53.254;6.600;2023-02-23T04:27:02;7.30;99.90
51837;DHT22;38941;53.254;6.600;2023-02-23T04:29:03;7.30;99.90
51837;DHT22;38941;53.254;6.600;2023-02-23T04:31:04;7.30;99.90
51837;DHT22;38941;53.254;6.600;2023-02-23T04:33:05;7.30;99.90
51837;DHT22;38941;53.254;6.600;2023-02-23T04:35:06;7.30;99.90
51837;DHT22;38941;53.254;6.600;2023-02-23T04:37:07;7.30;99.90
51837;DHT22;38941;53.254;6.600;2023-02-23T04:39:08;7.40;99.90
51837;DHT22;38941;53.254;6.600;2023-02-23T04:41:08;7.30;99.90
51837;DHT22;38941;53.254;6.600;2023-02-23T04:43:12;7.30;99.90
51837;DHT22;38941;53.254;6.600;2023-02-23T04:45:14;7.30;99.90
51837;DHT22;38941;53.254;6.600;2023-02-23T04:47:15;7.30;99.90
51837;DHT22;38941;53.254;6.600;2023-02-23T04:49:16;7.30;99.90
51837;DHT22;38941;53.254;6.600;2023-02-23T04:51:19;7.30;99.90
51837;DHT22;38941;53.254;6.600;2023-02-23T04:53:20;7.60;99.90
51837;DHT22;38941;53.254;6.600;2023-02-23T04:55:24;7.30;99.90
51837;DHT22;38941;53.254;6.600;2023-02-23T04:57:25;7.30;99.90
51837;DHT22;38941;53.254;6.600;2023-02-23T04:59:27;7.30;99.90
51837;DHT22;38941;53.254;6.600;2023-02-23T05:01:29;7.30;99.90
51837;DHT22;38941;53.254;6.600;2023-02-23T05:03:31;7.30;99.90
51837;DHT22;38941;53.254;6.600;2023-02-23T05:05:32;7.40;99.90
51837;DHT22;38941;53.254;6.600;2023-02-23T05:07:33;7.30;99.90
51837;DHT22;38941;53.254;6.600;2023-02-23T05:09:34;7.30;99.90
51837;DHT22;38941;53.254;6.600;2023-02-23T05:11:36;7.30;99.90
51837;DHT22;38941;53.254;6.600;2023-02-23T05:13:37;7.40;99.90
51837;DHT22;38941;53.254;6.600;2023-02-23T05:15:38;7.30;99.90
51837;DHT22;38941;53.254;6.600;2023-02-23T05:17:39;7.30;99.90
51837;DHT22;38941;53.254;6.600;2023-02-23T05:19:43;7.30;99.90
51837;DHT22;38941;53.254;6.600;2023-02-23T05:21:44;7.30;99.90
51837;DHT22;38941;53.254;6.600;2023-02-23T05:23:45;7.30;99.90
51837;DHT22;38941;53.254;6.600;2023-02-23T05:25:46;7.30;99.90
51837;DHT22;38941;53.254;6.600;2023-02-23T05:27:47;7.30;99.90
51837;DHT22;38941;53.254;6.600;2023-02-23T05:29:48;7.30;99.90
51837;DHT22;38941;53.254;6.600;2023-02-23T05:31:48;7.30;99.90
51837;DHT22;38941;53.254;6.600;2023-02-23T05:33:49;7.30;99.90
51837;DHT22;38941;53.254;6.600;2023-02-23T05:35:50;7.30;99.90
51837;DHT22;38941;53.254;6.600;2023-02-23T05:37:50;7.40;99.90
51837;DHT22;38941;53.254;6.600;2023-02-23T05:39:51;7.30;99.90
51837;DHT22;38941;53.254;6.600;2023-02-23T05:41:52;7.30;99.90
51837;DHT22;38941;53.254;6.600;2023-02-23T05:43:54;7.20;99.90
51837;DHT22;38941;53.254;6.600;2023-02-23T05:45:55;7.30;99.90
51837;DHT22;38941;53.254;6.600;2023-02-23T05:47:56;7.30;99.90
51837;DHT22;38941;53.254;6.600;2023-02-23T05:49:57;7.30;99.90
51837;DHT22;38941;53.254;6.600;2023-02-23T05:51:59;7.30;99.90
51837;DHT22;38941;53.254;6.600;2023-02-23T05:54:00;7.30;99.90
51837;DHT22;38941;53.254;6.600;2023-02-23T05:56:03;7.30;99.90
51837;DHT22;38941;53.254;6.600;2023-02-23T05:58:04;7.20;99.90
51837;DHT22;38941;53.254;6.600;2023-02-23T06:00:07;7.30;99.90
51837;DHT22;38941;53.254;6.600;2023-02-23T06:02:08;7.30;99.90
51837;DHT22;38941;53.254;6.600;2023-02-23T06:04:08;7.30;99.90
51837;DHT22;38941;53.254;6.600;2023-02-23T06:06:09;7.30;99.90
51837;DHT22;38941;53.254;6.600;2023-02-23T06:08:10;7.40;99.90
51837;DHT22;38941;53.254;6.600;2023-02-23T06:10:12;7.30;99.90
51837;DHT22;38941;53.254;6.600;2023-02-23T06:12:13;7.30;99.90
51837;DHT22;38941;53.254;6.600;2023-02-23T06:14:13;7.10;99.90
51837;DHT22;38941;53.254;6.600;2023-02-23T06:16:15;7.30;99.90
51837;DHT22;38941;53.254;6.600;2023-02-23T06:18:16;7.30;99.90
51837;DHT22;38941;53.254;6.600;2023-02-23T06:20:17;7.20;99.90
51837;DHT22;38941;53.254;6.600;2023-02-23T06:22:20;7.30;99.90
51837;DHT22;38941;53.254;6.600;2023-02-23T06:24:21;7.20;99.90
51837;DHT22;38941;53.254;6.600;2023-02-23T06:26:23;7.30;99.90
51837;DHT22;38941;53.254;6.600;2023-02-23T06:28:25;7.20;99.90
51837;DHT22;38941;53.254;6.600;2023-02-23T06:30:26;7.30;99.90
51837;DHT22;38941;53.254;6.600;2023-02-23T06:32:26;7.30;99.90
51837;DHT22;38941;53.254;6.600;2023-02-23T06:34:27;7.20;99.90
51837;DHT22;38941;53.254;6.600;2023-02-23T06:36:28;7.30;99.90
51837;DHT22;38941;53.254;6.600;2023-02-23T06:38:29;7.20;99.90
51837;DHT22;38941;53.254;6.600;2023-02-23T06:40:30;7.20;99.90
51837;DHT22;38941;53.254;6.600;2023-02-23T06:42:31;7.20;99.90
51837;DHT22;38941;53.254;6.600;2023-02-23T06:44:33;7.30;99.90
51837;DHT22;38941;53.254;6.600;2023-02-23T06:46:35;7.20;99.90
51837;DHT22;38941;53.254;6.600;2023-02-23T06:48:35;7.20;99.90
51837;DHT22;38941;53.254;6.600;2023-02-23T06:50:38;7.20;99.90
51837;DHT22;38941;53.254;6.600;2023-02-23T06:52:39;7.20;99.90
51837;DHT22;38941;53.254;6.600;2023-02-23T06:54:40;7.20;99.90
51837;DHT22;38941;53.254;6.600;2023-02-23T06:56:41;7.30;99.90
51837;DHT22;38941;53.254;6.600;2023-02-23T06:58:42;7.20;99.90
51837;DHT22;38941;53.254;6.600;2023-02-23T07:00:42;7.20;99.90
51837;DHT22;38941;53.254;6.600;2023-02-23T07:02:43;7.20;99.90
51837;DHT22;38941;53.254;6.600;2023-02-23T07:04:45;7.20;99.90
51837;DHT22;38941;53.254;6.600;2023-02-23T07:06:45;7.20;99.90
51837;DHT22;38941;53.254;6.600;2023-02-23T07:08:48;7.20;99.90
51837;DHT22;38941;53.254;6.600;2023-02-23T07:10:48;7.20;99.90
51837;DHT22;38941;53.254;6.600;2023-02-23T07:12:52;7.20;99.90
51837;DHT22;38941;53.254;6.600;2023-02-23T07:14:54;7.20;99.90
51837;DHT22;38941;53.254;6.600;2023-02-23T07:16:54;7.20;99.90
51837;DHT22;38941;53.254;6.600;2023-02-23T07:18:55;7.20;99.90
51837;DHT22;38941;53.254;6.600;2023-02-23T07:20:56;7.20;99.90
51837;DHT22;38941;53.254;6.600;2023-02-23T07:22:56;7.20;99.90
51837;DHT22;38941;53.254;6.600;2023-02-23T07:24:57;7.20;99.90
51837;DHT22;38941;53.254;6.600;2023-02-23T07:26:59;7.20;99.90
51837;DHT22;38941;53.254;6.600;2023-02-23T07:29:00;7.20;99.90
51837;DHT22;38941;53.254;6.600;2023-02-23T07:31:01;7.20;99.90
51837;DHT22;38941;53.254;6.600;2023-02-23T07:33:02;7.20;99.90
51837;DHT22;38941;53.254;6.600;2023-02-23T07:35:03;7.20;99.90
51837;DHT22;38941;53.254;6.600;2023-02-23T07:37:04;7.20;99.90
51837;DHT22;38941;53.254;6.600;2023-02-23T07:39:05;7.20;99.90
51837;DHT22;38941;53.254;6.600;2023-02-23T07:41:06;7.20;99.90
51837;DHT22;38941;53.254;6.600;2023-02-23T07:43:07;7.20;99.90
51837;DHT22;38941;53.254;6.600;2023-02-23T07:45:08;7.20;99.90
51837;DHT22;38941;53.254;6.600;2023-02-23T07:47:10;7.20;99.90
51837;DHT22;38941;53.254;6.600;2023-02-23T07:49:11;7.20;99.90
51837;DHT22;38941;53.254;6.600;2023-02-23T07:51:13;7.20;99.90
51837;DHT22;38941;53.254;6.600;2023-02-23T07:53:14;7.20;99.90
51837;DHT22;38941;53.254;6.600;2023-02-23T07:55:15;7.20;99.90
51837;DHT22;38941;53.254;6.600;2023-02-23T07:57:16;7.20;99.90
51837;DHT22;38941;53.254;6.600;2023-02-23T07:59:17;7.20;99.90
51837;DHT22;38941;53.254;6.600;2023-02-23T08:01:18;7.20;99.90
51837;DHT22;38941;53.254;6.600;2023-02-23T08:03:18;7.20;99.90
51837;DHT22;38941;53.254;6.600;2023-02-23T08:05:20;7.20;99.90
51837;DHT22;38941;53.254;6.600;2023-02-23T08:07:21;7.20;99.90
51837;DHT22;38941;53.254;6.600;2023-02-23T08:09:22;7.20;99.90
51837;DHT22;38941;53.254;6.600;2023-02-23T08:11:22;7.20;99.90
51837;DHT22;38941;53.254;6.600;2023-02-23T08:13:23;7.20;99.90
51837;DHT22;38941;53.254;6.600;2023-02-23T08:15:25;7.10;99.90
51837;DHT22;38941;53.254;6.600;2023-02-23T08:17:25;7.20;99.90
51837;DHT22;38941;53.254;6.600;2023-02-23T08:19:27;7.10;99.90
51837;DHT22;38941;53.254;6.600;2023-02-23T08:21:28;7.10;99.90
51837;DHT22;38941;53.254;6.600;2023-02-23T08:23:30;7.10;99.90
51837;DHT22;38941;53.254;6.600;2023-02-23T08:25:31;7.10;99.90
51837;DHT22;38941;53.254;6.600;2023-02-23T08:27:34;7.10;99.90
51837;DHT22;38941;53.254;6.600;2023-02-23T08:29:34;7.10;99.90
51837;DHT22;38941;53.254;6.600;2023-02-23T08:31:35;7.00;99.90
51837;DHT22;38941;53.254;6.600;2023-02-23T08:33:36;7.10;99.90
51837;DHT22;38941;53.254;6.600;2023-02-23T08:35:39;7.10;99.90
51837;DHT22;38941;53.254;6.600;2023-02-23T08:37:40;7.10;99.90
51837;DHT22;38941;53.254;6.600;2023-02-23T08:39:42;7.20;99.90
51837;DHT22;38941;53.254;6.600;2023-02-23T08:41:44;7.20;99.90
51837;DHT22;38941;53.254;6.600;2023-02-23T08:43:46;6.30;99.90
51837;DHT22;38941;53.254;6.600;2023-02-23T08:45:48;7.20;99.90
51837;DHT22;38941;53.254;6.600;2023-02-23T08:47:48;7.20;99.90
51837;DHT22;38941;53.254;6.600;2023-02-23T08:49:50;7.20;99.90
51837;DHT22;38941;53.254;6.600;2023-02-23T08:51:51;7.20;99.90
51837;DHT22;38941;53.254;6.600;2023-02-23T08:53:51;7.20;99.90
51837;DHT22;38941;53.254;6.600;2023-02-23T08:56:00;7.20;99.90
51837;DHT22;38941;53.254;6.600;2023-02-23T08:58:01;7.20;99.90
51837;DHT22;38941;53.254;6.600;2023-02-23T09:00:04;7.20;99.90
51837;DHT22;38941;53.254;6.600;2023-02-23T09:02:14;7.20;99.90
51837;DHT22;38941;53.254;6.600;2023-02-23T09:04:15;7.30;99.90
51837;DHT22;38941;53.254;6.600;2023-02-23T09:06:20;7.30;99.90
51837;DHT22;38941;53.254;6.600;2023-02-23T09:08:21;7.30;99.90
51837;DHT22;38941;53.254;6.600;2023-02-23T09:10:23;7.20;99.90
51837;DHT22;38941;53.254;6.600;2023-02-23T09:12:27;7.30;99.90
51837;DHT22;38941;53.254;6.600;2023-02-23T09:14:27;7.30;99.90
51837;DHT22;38941;53.254;6.600;2023-02-23T09:16:29;7.30;99.90
51837;DHT22;38941;53.254;6.600;2023-02-23T09:18:30;7.30;99.90
51837;DHT22;38941;53.254;6.600;2023-02-23T09:20:32;7.30;99.90
51837;DHT22;38941;53.254;6.600;2023-02-23T09:22:34;7.40;99.90
51837;DHT22;38941;53.254;6.600;2023-02-23T09:24:35;7.40;99.90
51837;DHT22;38941;53.254;6.600;2023-02-23T09:26:35;6.70;99.90
51837;DHT22;38941;53.254;6.600;2023-02-23T09:28:39;7.50;99.90
51837;DHT22;38941;53.254;6.600;2023-02-23T09:30:43;7.60;99.90
51837;DHT22;38941;53.254;6.600;2023-02-23T09:32:44;7.60;99.90
51837;DHT22;38941;53.254;6.600;2023-02-23T09:34:46;7.60;99.90
51837;DHT22;38941;53.254;6.600;2023-02-23T09:36:49;7.70;99.90
51837;DHT22;38941;53.254;6.600;2023-02-23T09:38:53;7.70;99.90
51837;DHT22;38941;53.254;6.600;2023-02-23T09:40:58;7.80;99.90
51837;DHT22;38941;53.254;6.600;2023-02-23T09:50:04;8.00;99.90
51837;DHT22;38941;53.254;6.600;2023-02-23T09:52:14;8.00;99.90
51837;DHT22;38941;53.254;6.600;2023-02-23T09:54:16;8.00;99.90
51837;DHT22;38941;53.254;6.600;2023-02-23T09:56:35;8.10;99.90
51837;DHT22;38941;53.254;6.600;2023-02-23T09:58:37;8.10;99.90
51837;DHT22;38941;53.254;6.600;2023-02-23T10:00:42;8.20;99.90
51837;DHT22;38941;53.254;6.600;2023-02-23T10:04:55;8.20;99.90
51837;DHT22;38941;53.254;6.600;2023-02-23T10:07:06;8.20;99.90
51837;DHT22;38941;53.254;6.600;2023-02-23T10:09:43;8.20;99.90
51837;DHT22;38941;53.254;6.600;2023-02-23T10:19:02;8.30;99.90
51837;DHT22;38941;53.254;6.600;2023-02-23T10:23:22;8.30;99.90
51837;DHT22;38941;53.254;6.600;2023-02-23T10:25:30;8.30;99.90
51837;DHT22;38941;53.254;6.600;2023-02-23T10:27:40;8.40;99.90
51837;DHT22;38941;53.254;6.600;2023-02-23T10:29:51;8.30;99.90
51837;DHT22;38941;53.254;6.600;2023-02-23T10:32:19;8.40;99.90
51837;DHT22;38941;53.254;6.600;2023-02-23T10:34:18;8.40;99.90
51837;DHT22;38941;53.254;6.600;2023-02-23T10:38:37;8.50;99.90
51837;DHT22;38941;53.254;6.600;2023-02-23T10:40:38;8.50;99.90
51837;DHT22;38941;53.254;6.600;2023-02-23T10:42:40;8.60;99.90
51837;DHT22;38941;53.254;6.600;2023-02-23T10:44:44;8.80;99.90
51837;DHT22;38941;53.254;6.600;2023-02-23T10:46:46;8.60;99.90
51837;DHT22;38941;53.254;6.600;2023-02-23T10:48:50;8.60;99.90
51837;DHT22;38941;53.254;6.600;2023-02-23T10:50:54;8.60;99.90
51837;DHT22;38941;53.254;6.600;2023-02-23T10:53:22;8.80;99.90
51837;DHT22;38941;53.254;6.600;2023-02-23T10:55:24;8.60;99.90
51837;DHT22;38941;53.254;6.600;2023-02-23T10:57:28;8.70;99.90
51837;DHT22;38941;53.254;6.600;2023-02-23T10:59:30;8.70;99.90
51837;DHT22;38941;53.254;6.600;2023-02-23T11:03:41;8.70;99.90
51837;DHT22;38941;53.254;6.600;2023-02-23T11:05:46;8.70;99.90
51837;DHT22;38941;53.254;6.600;2023-02-23T11:07:50;8.70;99.90
51837;DHT22;38941;53.254;6.600;2023-02-23T11:10:25;8.70;99.90
51837;DHT22;38941;53.254;6.600;2023-02-23T11:12:36;8.70;99.90
51837;DHT22;38941;53.254;6.600;2023-02-23T11:14:37;8.80;99.90
51837;DHT22;38941;53.254;6.600;2023-02-23T11:16:38;8.80;99.90
51837;DHT22;38941;53.254;6.600;2023-02-23T11:19:03;8.80;99.90
51837;DHT22;38941;53.254;6.600;2023-02-23T11:21:09;8.80;99.90
51837;DHT22;38941;53.254;6.600;2023-02-23T11:23:33;8.90;99.90
51837;DHT22;38941;53.254;6.600;2023-02-23T11:25:36;8.90;99.90
51837;DHT22;38941;53.254;6.600;2023-02-23T11:27:38;8.90;99.90
51837;DHT22;38941;53.254;6.600;2023-02-23T11:29:41;8.90;99.90
51837;DHT22;38941;53.254;6.600;2023-02-23T11:31:49;8.90;99.90
51837;DHT22;38941;53.254;6.600;2023-02-23T11:33:53;8.80;99.90
51837;DHT22;38941;53.254;6.600;2023-02-23T11:35:59;8.90;99.90
51837;DHT22;38941;53.254;6.600;2023-02-23T11:38:32;8.80;99.90
51837;DHT22;38941;53.254;6.600;2023-02-23T11:40:33;8.80;99.90
51837;DHT22;38941;53.254;6.600;2023-02-23T11:42:37;8.80;99.90
51837;DHT22;38941;53.254;6.600;2023-02-23T11:44:51;8.80;99.90
51837;DHT22;38941;53.254;6.600;2023-02-23T11:47:03;8.80;99.90
51837;DHT22;38941;53.254;6.600;2023-02-23T11:49:08;8.80;99.90
51837;DHT22;38941;53.254;6.600;2023-02-23T11:51:39;8.70;99.90
51837;DHT22;38941;53.254;6.600;2023-02-23T11:53:44;8.70;99.90
51837;DHT22;38941;53.254;6.600;2023-02-23T11:55:50;8.70;99.90
51837;DHT22;38941;53.254;6.600;2023-02-23T11:58:07;8.60;99.90
51837;DHT22;38941;53.254;6.600;2023-02-23T12:00:11;8.60;99.90
51837;DHT22;38941;53.254;6.600;2023-02-23T12:04:36;8.60;99.90
51837;DHT22;38941;53.254;6.600;2023-02-23T12:06:40;8.70;99.90
51837;DHT22;38941;53.254;6.600;2023-02-23T12:08:44;8.60;99.90
51837;DHT22;38941;53.254;6.600;2023-02-23T12:10:50;8.60;99.90
51837;DHT22;38941;53.254;6.600;2023-02-23T12:15:41;8.50;99.90
51837;DHT22;38941;53.254;6.600;2023-02-23T12:17:49;8.60;99.90
51837;DHT22;38941;53.254;6.600;2023-02-23T12:19:57;8.50;99.90
51837;DHT22;38941;53.254;6.600;2023-02-23T12:24:27;8.50;99.90
51837;DHT22;38941;53.254;6.600;2023-02-23T12:26:30;8.60;99.90
51837;DHT22;38941;53.254;6.600;2023-02-23T12:28:38;8.50;99.90
51837;DHT22;38941;53.254;6.600;2023-02-23T12:31:13;8.50;99.90
51837;DHT22;38941;53.254;6.600;2023-02-23T12:37:30;8.60;99.90
51837;DHT22;38941;53.254;6.600;2023-02-23T12:39:42;8.60;99.90
51837;DHT22;38941;53.254;6.600;2023-02-23T12:41:54;8.60;99.90
51837;DHT22;38941;53.254;6.600;2023-02-23T12:44:27;8.60;99.90
51837;DHT22;38941;53.254;6.600;2023-02-23T12:46:34;8.70;99.90
51837;DHT22;38941;53.254;6.600;2023-02-23T12:51:40;8.70;99.90
51837;DHT22;38941;53.254;6.600;2023-02-23T12:53:43;8.70;99.90
51837;DHT22;38941;53.254;6.600;2023-02-23T12:56:00;8.70;99.90
51837;DHT22;38941;53.254;6.600;2023-02-23T13:01:34;8.60;99.90
51837;DHT22;38941;53.254;6.600;2023-02-23T13:05:15;8.50;99.90
51837;DHT22;38941;53.254;6.600;2023-02-23T13:14:20;8.10;99.90
51837;DHT22;38941;53.254;6.600;2023-02-23T13:16:38;8.10;99.90
51837;DHT22;38941;53.254;6.600;2023-02-23T13:18:50;8.00;99.90
51837;DHT22;38941;53.254;6.600;2023-02-23T13:21:07;8.00;99.90
51837;DHT22;38941;53.254;6.600;2023-02-23T13:26:29;7.90;99.90
51837;DHT22;38941;53.254;6.600;2023-02-23T13:28:47;7.90;99.90
51837;DHT22;38941;53.254;6.600;2023-02-23T13:30:49;7.90;99.90
51837;DHT22;38941;53.254;6.600;2023-02-23T13:32:51;7.90;99.90
51837;DHT22;38941;53.254;6.600;2023-02-23T13:35:15;7.90;99.90
51837;DHT22;38941;53.254;6.600;2023-02-23T13:37:20;7.90;99.90
51837;DHT22;38941;53.254;6.600;2023-02-23T13:40:14;7.80;99.90
51837;DHT22;38941;53.254;6.600;2023-02-23T13:42:07;7.80;99.90
51837;DHT22;38941;53.254;6.600;2023-02-23T13:47:02;7.70;99.90
51837;DHT22;38941;53.254;6.600;2023-02-23T13:49:56;7.70;99.90
51837;DHT22;38941;53.254;6.600;2023-02-23T13:52:01;7.70;99.90
51837;DHT22;38941;53.254;6.600;2023-02-23T13:56:21;7.70;99.90
51837;DHT22;38941;53.254;6.600;2023-02-23T13:58:28;7.70;99.90
51837;DHT22;38941;53.254;6.600;2023-02-23T14:00:29;7.70;99.90
51837;DHT22;38941;53.254;6.600;2023-02-23T14:02:38;7.70;99.90
51837;DHT22;38941;53.254;6.600;2023-02-23T14:04:40;7.70;99.90
51837;DHT22;38941;53.254;6.600;2023-02-23T14:09:07;7.70;99.90
51837;DHT22;38941;53.254;6.600;2023-02-23T14:11:08;7.60;99.90
51837;DHT22;38941;53.254;6.600;2023-02-23T14:17:38;7.60;99.90
51837;DHT22;38941;53.254;6.600;2023-02-23T14:20:04;7.60;99.90
51837;DHT22;38941;53.254;6.600;2023-02-23T14:22:15;7.60;99.90
51837;DHT22;38941;53.254;6.600;2023-02-23T14:24:23;7.60;99.90
51837;DHT22;38941;53.254;6.600;2023-02-23T14:30:44;7.60;99.90
51837;DHT22;38941;53.254;6.600;2023-02-23T14:32:50;7.60;99.90
51837;DHT22;38941;53.254;6.600;2023-02-23T14:35:01;7.50;99.90
51837;DHT22;38941;53.254;6.600;2023-02-23T14:39:22;7.60;99.90
51837;DHT22;38941;53.254;6.600;2023-02-23T14:44:14;7.60;99.90
51837;DHT22;38941;53.254;6.600;2023-02-23T14:46:20;7.50;99.90
51837;DHT22;38941;53.254;6.600;2023-02-23T14:48:22;7.50;99.90
51837;DHT22;38941;53.254;6.600;2023-02-23T14:50:31;7.50;99.90
51837;DHT22;38941;53.254;6.600;2023-02-23T14:52:39;7.50;99.90
51837;DHT22;38941;53.254;6.600;2023-02-23T14:54:42;7.40;99.90
51837;DHT22;38941;53.254;6.600;2023-02-23T14:56:48;7.50;99.90
51837;DHT22;38941;53.254;6.600;2023-02-23T14:58:54;7.60;99.90
51837;DHT22;38941;53.254;6.600;2023-02-23T15:00:55;7.60;99.90
51837;DHT22;38941;53.254;6.600;2023-02-23T15:03:07;7.60;99.90
51837;DHT22;38941;53.254;6.600;2023-02-23T15:05:16;7.60;99.90
51837;DHT22;38941;53.254;6.600;2023-02-23T15:07:31;7.60;99.90
51837;DHT22;38941;53.254;6.600;2023-02-23T15:09:40;7.60;99.90
51837;DHT22;38941;53.254;6.600;2023-02-23T15:11:49;7.60;99.90
51837;DHT22;38941;53.254;6.600;2023-02-23T15:13:53;7.50;99.90
51837;DHT22;38941;53.254;6.600;2023-02-23T15:15:56;7.50;99.90
51837;DHT22;38941;53.254;6.600;2023-02-23T15:17:59;7.50;99.90
51837;DHT22;38941;53.254;6.600;2023-02-23T15:20:07;7.50;99.90
51837;DHT22;38941;53.254;6.600;2023-02-23T15:22:23;7.50;99.90